Terminal Aerodrome Forecast
Issued by NWS

Home | Current Version | Previous Version | Text Only | Print | Product List | Glossary On
Versions: 1 2 3 4 5 6 7 8 9 10 11 12 13 14 15 16 17 18
000
FTUS45 KABQ 312342
TAFTCC
TAF
KTCC 312342Z 0100/0124 08011KT P6SM VCSH SCT030 BKN060
      TEMPO 0100/0103 VRB20G30KT 4SM -TSRA BKN030CB
     FM010300 08007KT P6SM -RA SCT015 BKN035
     FM010500 03005KT 3SM BR VCSH OVC010
     FM011600 05006KT P6SM BKN020
     FM012100 16008KT P6SM VCSH BKN060=

USA.gov is the U.S. government's official web portal to all federal, state and local government web resources and services.